• Join FlightAware (Why Join?)
  • Login
  • US Flag 
09:42AM EDT


 

Airport Tracker/Info


-or-


 

Live Flight TrackerFlight Track Log ✈ N303BF ✈ 21-Sep-2013 ✈ KCPC - KSUA

Flight Track Log - Related Links

Times and Time Zones

All times are in EDT time to prevent confusion due to time zone crossing. See the N303BF flight status page for this flight to view local times or setup timezone preferences in your user account.

Time Position Orientation Groundspeed Altitude Reporting Facility
EDT Latitude Longitude Course Direction KTS MPH feet Rate Location/Type
09:27AM 33.8239 -78.8175 220° Southwest  Level Estimated
09:27AM 33.5317 -79.4142 227° Southwest 241 277 10,400  Level Jacksonville Center
09:28AM 33.7984 -78.8510 228° Southwest  Level FlightAware Approximate
09:28AM 33.4747 -79.4589 213° Southwest 241 277 10,300  Level Jacksonville Center
09:29AM 33.7730 -78.8844 228° Southwest  Level FlightAware Approximate
09:29AM 33.4236 -79.5081 219° Southwest 241 277 10,400  Level Jacksonville Center
09:30AM 33.7475 -78.9178 227° Southwest  Level FlightAware Approximate
09:30AM 33.3728 -79.5547 217° Southwest 241 277 10,400  Level Jacksonville Center
09:31AM 33.7220 -78.9513 227° Southwest  Level FlightAware Approximate
09:31AM 33.3178 -79.5992 214° Southwest 241 277 10,400  Level Jacksonville Center
09:32AM 33.6965 -78.9846 227° Southwest  Level FlightAware Approximate
09:32AM 33.2667 -79.6433 216° Southwest 241 277 10,400  Level Jacksonville Center
09:33AM 33.2178 -79.6922 220° Southwest 241 277 10,400  Level Jacksonville Center
09:34AM 33.1606 -79.7389 214° Southwest 241 277 10,400  Level Jacksonville Center
09:35AM 33.1094 -79.7803 214° Southwest 241 277 10,400  Level Jacksonville Center
09:36AM 33.0542 -79.8269 215° Southwest 241 277 10,400  Level Jacksonville Center
09:37AM 33.0031 -79.8756 219° Southwest 241 277 10,400  Level Jacksonville Center
09:38AM 32.9500 -79.9172 213° Southwest 241 277 10,400  Level Jacksonville Center
09:39AM 32.8967 -79.9608 214° Southwest 241 277 10,400 -60 Level Jacksonville Center
09:40AM 32.8456 -80.0072 217° Southwest 241 277 10,300  Descending Jacksonville Center
09:41AM 32.7922 -80.0483 213° Southwest 234 269 10,400  Climbing Jacksonville Center
09:42AM 32.7347 -80.0897 211° Southwest 234 269 10,400  Level Jacksonville Center
09:43AM 32.6814 -80.1308 213° Southwest 234 269 10,400  Level Jacksonville Center
09:44AM 32.6300 -80.1792 218° Southwest 234 269 10,500  Climbing Jacksonville Center
09:45AM 32.5789 -80.2250 217° Southwest 234 269 10,500  Level Jacksonville Center
09:46AM 32.5278 -80.2686 216° Southwest 234 269 10,500 -60 Level Jacksonville Center
09:47AM 32.4658 -80.3097 209° Southwest 131 151 10,400 -60 Descending Jacksonville Center
09:48AM 32.4186 -80.3481 214° Southwest 206 237 10,400  Level Jacksonville Center
09:49AM 32.3672 -80.3886 214° Southwest 211 243 10,500  Climbing Jacksonville Center
09:50AM 32.2972 -80.4397 212° Southwest 239 275 10,400 -60 Descending Jacksonville Center
09:51AM 32.2417 -80.4856 215° Southwest 245 282 10,400  Level Jacksonville Center
09:52AM 32.1903 -80.5286 215° Southwest 245 282 10,400  Level Jacksonville Center
09:53AM 32.1347 -80.5692 212° Southwest 245 282 10,400  Level Jacksonville Center
09:54AM 32.0833 -80.6122 215° Southwest 239 275 10,500  Climbing Jacksonville Center
09:55AM 32.0300 -80.6553 214° Southwest 233 268 10,400 -60 Descending Jacksonville Center
09:56AM 31.9806 -80.6956 215° Southwest 238 274 10,400  Level Jacksonville Center
09:57AM 31.9247 -80.7386 213° Southwest 238 274 10,400  Level Jacksonville Center
09:58AM 31.8672 -80.7839 214° Southwest 238 274 10,400  Level Jacksonville Center
09:59AM 31.8094 -80.8244 211° Southwest 238 274 10,500  Climbing Jacksonville Center
10:00AM 31.7597 -80.8622 213° Southwest 233 268 10,400 -60 Descending Jacksonville Center
10:01AM 31.7019 -80.9000 209° Southwest 238 274 10,400  Level Jacksonville Center
10:02AM 31.6400 -80.9428 210° Southwest 238 274 10,400  Level Jacksonville Center
10:03AM 31.5842 -80.9806 210° Southwest 238 274 10,400  Level Jacksonville Center
10:04AM 31.5283 -81.0206 211° Southwest 238 274 10,400  Level Jacksonville Center
10:05AM 31.4767 -81.0461 203° Southwest 238 274 10,400  Level Jacksonville Center
10:06AM 31.4167 -81.0789 205° Southwest 238 274 10,400  Level Jacksonville Center
10:07AM 31.3503 -81.1094 201° Southwest 238 274 10,400  Level Jacksonville Center
10:08AM 31.2881 -81.1397 203° Southwest 238 274 10,400  Level Jacksonville Center
10:09AM 31.2278 -81.1675 202° Southwest 231 266 10,400  Level Jacksonville Center
10:10AM 31.1656 -81.1956 201° Southwest 240 276 10,400  Level Jacksonville Center
10:11AM 31.1053 -81.2233 202° Southwest 235 270 10,400  Level Jacksonville Center
10:12AM 31.0408 -81.2389 192° South 240 276 10,400  Level Jacksonville Center
10:13AM 30.9783 -81.2472 187° South 240 276 10,400  Level Jacksonville Center
10:14AM 30.9283 -81.2506 183° South 235 270 10,400  Level Jacksonville Center
10:14AM 30.9094 -81.2508 181° South 240 276 10,400  Level Jacksonville Center
10:14AM 30.8739 -81.2539 184° South 237 273 10,400  Level Jacksonville Center
10:15AM 30.8447 -81.2519 177° South 240 276 10,400  Level Jacksonville Center
10:15AM 30.8008 -81.2553 184° South 237 273 10,400  Level Jacksonville Center
10:16AM 30.7800 -81.2556 181° South 235 270 10,400 60 Level Jacksonville Center
10:16AM 30.7361 -81.2589 184° South 233 268 10,500  Climbing Jacksonville Center
10:17AM 30.7300 -81.2589 180° South 235 270 10,400 -180 Descending Jacksonville Center
10:17AM 30.6842 -81.2572 178° South 234 269 10,400  Level Jacksonville Center
10:18AM 30.6569 -81.2600 185° South 235 270 10,400  Level Jacksonville Center
10:18AM 30.6236 -81.2583 178° South 235 270 10,400  Level Jacksonville Center
10:19AM 30.5922 -81.2589 181° South 235 270 10,400  Level Jacksonville Center
10:19AM 30.5506 -81.2619 184° South 233 268 10,400  Level Jacksonville Center
10:20AM 30.5253 -81.2600 176° South 235 270 10,400  Level Jacksonville Center
10:20AM 30.4858 -81.2583 178° South 231 266 10,400  Level Jacksonville Center
10:21AM 30.4628 -81.2586 181° South 235 270 10,400  Level Jacksonville Center
10:21AM 30.4189 -81.2594 181° South 233 268 10,400  Level Jacksonville Center
10:22AM 30.3958 -81.2572 175° South 235 270 10,400  Level Jacksonville Center
10:22AM 30.3542 -81.2581 181° South 232 267 10,400  Level Jacksonville Center
10:23AM 30.3311 -81.2561 176° South 235 270 10,400  Level Jacksonville Center
10:23AM 30.2894 -81.2544 178° South 233 268 10,400  Level Jacksonville Center
10:24AM 30.2247 -81.2531 179° South 231 266 10,400  Level Jacksonville Center
10:25AM 30.1600 -81.2542 181° South 234 269 10,400  Level Jacksonville Center
10:26AM 30.0889 -81.2458 174° South 237 273 10,400  Level Jacksonville Center
10:27AM 30.0178 -81.2375 174° South 238 274 10,400 -60 Level Jacksonville Center
10:28AM 29.9592 -81.2289 173° South 238 274 10,300 -60 Descending Jacksonville Center
10:29AM 29.8900 -81.2108 167° South 236 272 10,300  Level Jacksonville Center
10:30AM 29.8439 -81.1997 168° South 236 272 10,300  Level Jacksonville Center
10:31AM 29.7811 -81.1839 168° South 235 270 10,400  Climbing Jacksonville Center
10:32AM 29.7161 -81.1661 167° South 235 270 10,400  Level Jacksonville Center
10:33AM 29.6469 -81.1481 167° South 235 270 10,500  Climbing Jacksonville Center
10:34AM 29.5842 -81.1300 166° South 234 269 10,500 -60 Level Jacksonville Center
10:35AM 29.5192 -81.1169 170° South 236 272 10,400 -60 Descending Jacksonville Center
10:36AM 29.4564 -81.0992 166° South 237 273 10,400  Level Jacksonville Center
10:37AM 29.3914 -81.0811 166° South 238 274 10,400  Level Jacksonville Center
10:38AM 29.3222 -81.0608 166° South 237 273 10,400  Level Jacksonville Center
10:39AM 29.2594 -81.0408 164° South 236 272 10,400  Level Jacksonville Center
10:40AM 29.1986 -81.0206 164° South 233 268 10,500  Climbing Jacksonville Center
10:41AM 29.1336 -81.0003 165° South 236 272 10,500 -60 Level Jacksonville Center
10:43AM 29.0000 -80.9500 162° South 235 270 10,400 -60 Descending Orlando TRACON
10:44AM 28.9333 -80.9333 168° South 237 273 10,400  Level Orlando TRACON
10:46AM 28.8667 -80.9167 168° South 237 273 10,500  Climbing Orlando TRACON
10:47AM 28.8000 -80.9000 168° South 238 274 10,400 -60 Descending Orlando TRACON
10:48AM 28.7333 -80.8667 156° South 237 273 10,400  Level Orlando TRACON
10:48AM 28.6833 -80.8500 164° South 237 273 10,500  Climbing Orlando TRACON
10:49AM 28.6167 -80.8333 168° South 237 273 10,400  Descending Orlando TRACON
10:52AM 28.4908 -80.7917 164° South 252 290 10,500 -120 Climbing Miami Center
10:53AM 28.4267 -80.7728 165° South 247 284 10,200 -480 Descending Miami Center
10:54AM 28.3608 -80.7444 159° South 247 284 9,600 -600 Descending Miami Center
10:55AM 28.3008 -80.7214 161° South 243 280 9,000 -600 Descending Miami Center
10:56AM 28.2389 -80.6956 160° South 243 280 8,500 -600 Descending Miami Center
10:57AM 28.1731 -80.6581 153° Southeast 243 280 7,900 -660 Descending Miami Center
10:58AM 28.1136 -80.6253 154° Southeast 243 280 7,200 -600 Descending Miami Center
10:59AM 28.0558 -80.5953 155° Southeast 238 274 6,700 -600 Descending Miami Center
11:00AM 28.0003 -80.5675 156° South 238 274 6,100 -660 Descending Miami Center
11:01AM 27.9364 -80.5325 154° Southeast 232 267 5,400 -600 Descending Miami Center
11:02AM 27.8789 -80.5003 154° Southeast 232 267 5,000 -420 Descending Miami Center
11:03AM 27.8231 -80.4703 155° Southeast 226 260 4,600 -300 Descending Miami Center
11:04AM 27.7736 -80.4453 156° South 226 260 4,400 -360 Descending Miami Center
11:05AM 27.7158 -80.4175 157° South 226 260 3,900 -600 Descending Miami Center
11:06AM 27.6519 -80.3922 161° South 231 266 3,200 -420 Descending Miami Center
11:07AM 27.5917 -80.3739 165° South 226 260 3,100 -120 Descending Miami Center
11:08AM 27.5358 -80.3533 162° South 220 253 3,000 -180 Descending Miami Center
11:09AM 27.4864 -80.3333 160° South 220 253 2,800 -300 Descending Miami Center
11:10AM 27.4303 -80.3128 162° South 220 253 2,500 -300 Descending Miami Center
11:12AM 27.3667 -80.2835 90° East  Level FlightAware Approximate
11:19AM 27.1817 -80.2213 166° South  Level Estimated
11:20AM 27.1817 -80.2213 166° South  Level Estimated
11:21AM 27.1817 -80.2213 166° South  Level Estimated
11:22AM 27.1817 -80.2213 166° South  Level Estimated
11:23AM 27.1817 -80.2213 166° South  Level Estimated
11:24AM 27.1817 -80.2213 166° South  Level Estimated
11:25AM 27.1817 -80.2213 166° South  Level Estimated
11:26AM 27.1817 -80.2213 166° South  Level Estimated
11:27AM 27.1817 -80.2213 166° South  Level Estimated
11:28AM 27.1817 -80.2213 166° South  Level Estimated
11:29AM 27.1817 -80.2213 166° South  Level Estimated
11:30AM 27.1817 -80.2213 166° South  Level Estimated
11:31AM 27.1817 -80.2213 166° South  Level Estimated
11:32AM 27.1817 -80.2213 166° South  Level Estimated
11:33AM 27.1817 -80.2213 166° South  Level Estimated
11:34AM 27.1817 -80.2213 166° South  Level Estimated
11:35AM 27.1817 -80.2213 166° South  Level Estimated